Time;durP1;ratioP1;P1;durP2;ratioP2;P2;SDS_P1;SDS_P2;PMS_P1;PMS_P2;Temp;Humidity;BMP_temperature;BMP_pressure;BME280_temperature;BME280_humidity;BME280_pressure;Samples;Min_cycle;Max_cycle;Signal;HPM_P1;HPM_P2
2020/12/30 00:00:08;;;;;;;6.38;2.97;;;;;;;;;;4973978;28;20133;-70
2020/12/30 00:02:35;;;;;;;5.05;3.25;;;;;;;;;;4973918;28;20493;-70
2020/12/30 00:05:08;;;;;;;6.28;3.13;;;;;;;;;;4973890;28;20060;-69
2020/12/30 00:07:35;;;;;;;5.22;3.28;;;;;;;;;;4979238;28;20050;-69
2020/12/30 00:10:05;;;;;;;5.45;3.33;;;;;;;;;;4992997;28;20085;-71
2020/12/30 00:12:34;;;;;;;5.57;3.58;;;;;;;;;;4993207;28;20109;-69
2020/12/30 00:15:00;;;;;;;4.75;3.17;;;;;;;;;;4993139;28;20093;-70
2020/12/30 00:17:26;;;;;;;4.05;3.20;;;;;;;;;;4992633;28;20082;-69
2020/12/30 00:19:52;;;;;;;6.53;2.92;;;;;;;;;;4993096;28;20074;-69
2020/12/30 00:22:19;;;;;;;4.32;3.25;;;;;;;;;;4992923;28;20128;-69
2020/12/30 00:24:45;;;;;;;4.50;2.88;;;;;;;;;;4991866;28;20082;-70
2020/12/30 00:27:11;;;;;;;4.22;2.72;;;;;;;;;;4992649;28;20097;-69
2020/12/30 00:29:37;;;;;;;4.55;2.55;;;;;;;;;;4992820;28;20413;-70
2020/12/30 00:32:03;;;;;;;5.72;3.28;;;;;;;;;;4993088;28;20054;-70
2020/12/30 00:34:29;;;;;;;5.32;3.42;;;;;;;;;;4987476;28;20047;-70
2020/12/30 00:36:55;;;;;;;3.85;2.63;;;;;;;;;;4973123;28;20058;-69
2020/12/30 00:39:21;;;;;;;5.70;3.42;;;;;;;;;;4973270;28;20046;-69
2020/12/30 00:41:54;;;;;;;5.57;3.45;;;;;;;;;;4973385;28;20473;-69
2020/12/30 00:44:20;;;;;;;5.88;3.10;;;;;;;;;;4989969;28;20096;-69
2020/12/30 00:46:53;;;;;;;4.63;3.17;;;;;;;;;;4992767;28;20089;-69
2020/12/30 00:49:19;;;;;;;;;;;;;;;;;;4992378;28;20042;-69
2020/12/30 00:51:52;;;;;;;4.75;3.35;;;;;;;;;;4992780;28;19971;-69
2020/12/30 00:54:18;;;;;;;;;;;;;;;;;;4992858;28;20567;-69
2020/12/30 00:56:46;;;;;;;4.57;2.85;;;;;;;;;;4992292;28;19975;-69
2020/12/30 00:59:12;;;;;;;8.10;3.05;;;;;;;;;;4992395;28;20058;-69
2020/12/30 01:01:38;;;;;;;5.25;3.25;;;;;;;;;;4991183;28;20482;-70
2020/12/30 01:04:04;;;;;;;5.57;2.90;;;;;;;;;;4992441;28;20327;-69
2020/12/30 01:06:30;;;;;;;6.53;3.72;;;;;;;;;;4992013;28;20112;-69
2020/12/30 01:08:57;;;;;;;4.28;3.28;;;;;;;;;;4992286;28;20140;-69
2020/12/30 01:11:27;;;;;;;6.63;4.10;;;;;;;;;;4992283;28;20101;-69
2020/12/30 01:13:53;;;;;;;5.80;3.33;;;;;;;;;;4991275;28;20517;-69
2020/12/30 01:16:20;;;;;;;4.45;3.20;;;;;;;;;;4992179;28;20051;-69
2020/12/30 01:18:46;;;;;;;6.30;3.88;;;;;;;;;;4992172;28;20090;-69
2020/12/30 01:21:13;;;;;;;5.18;3.30;;;;;;;;;;4992286;28;20474;-70
2020/12/30 01:23:39;;;;;;;4.82;3.17;;;;;;;;;;4992190;28;20046;-70
2020/12/30 01:26:05;;;;;;;4.00;3.00;;;;;;;;;;4992007;28;20472;-70
2020/12/30 01:28:31;;;;;;;4.30;3.35;;;;;;;;;;4991868;28;20050;-70
2020/12/30 01:30:57;;;;;;;3.95;2.85;;;;;;;;;;4992238;28;20050;-70
2020/12/30 01:33:24;;;;;;;4.43;3.20;;;;;;;;;;4992053;28;20054;-69
2020/12/30 01:35:50;;;;;;;4.78;3.03;;;;;;;;;;4990828;28;20418;-71
2020/12/30 01:38:16;;;;;;;7.47;3.78;;;;;;;;;;4992041;28;20082;-70
2020/12/30 01:40:42;;;;;;;4.45;3.13;;;;;;;;;;4992264;28;20556;-70
2020/12/30 01:43:08;;;;;;;4.75;2.95;;;;;;;;;;4992200;28;20101;-70
2020/12/30 01:45:35;;;;;;;5.18;3.17;;;;;;;;;;4991925;28;20145;-70
2020/12/30 01:48:08;;;;;;;4.13;3.30;;;;;;;;;;4992004;28;20089;-70
2020/12/30 01:50:34;;;;;;;4.28;2.78;;;;;;;;;;4991729;28;20474;-71
2020/12/30 01:53:01;;;;;;;4.45;3.13;;;;;;;;;;4975913;28;20113;-70
2020/12/30 01:55:27;;;;;;;3.92;2.83;;;;;;;;;;4954796;28;20129;-70
2020/12/30 01:57:53;;;;;;;3.22;2.53;;;;;;;;;;4955403;28;20066;-70
2020/12/30 02:00:19;;;;;;;5.32;2.90;;;;;;;;;;4974990;28;20182;-70
2020/12/30 02:02:48;;;;;;;6.18;2.83;;;;;;;;;;4976242;28;20047;-70
2020/12/30 02:05:14;;;;;;;3.80;2.78;;;;;;;;;;4958800;28;20047;-70
2020/12/30 02:07:40;;;;;;;4.15;2.47;;;;;;;;;;4973575;28;20058;-70
2020/12/30 02:10:06;;;;;;;3.75;2.50;;;;;;;;;;4978131;28;20144;-70
2020/12/30 02:12:32;;;;;;;3.90;2.10;;;;;;;;;;4995353;28;20084;-70
2020/12/30 02:14:58;;;;;;;3.42;2.55;;;;;;;;;;4977972;28;20452;-70
2020/12/30 02:17:24;;;;;;;3.90;2.45;;;;;;;;;;4994839;28;20493;-70
2020/12/30 02:19:50;;;;;;;2.92;2.40;;;;;;;;;;4995295;28;20309;-70
2020/12/30 02:22:21;;;;;;;3.25;2.30;;;;;;;;;;4994873;28;20085;-70
2020/12/30 02:24:47;;;;;;;3.38;1.88;;;;;;;;;;4994162;28;20128;-70
2020/12/30 02:27:13;;;;;;;2.65;2.20;;;;;;;;;;4993768;28;20125;-69
2020/12/30 02:29:39;;;;;;;3.78;2.25;;;;;;;;;;4994789;28;20121;-70
2020/12/30 02:32:05;;;;;;;3.10;2.13;;;;;;;;;;4995337;28;20097;-70
2020/12/30 02:34:31;;;;;;;4.35;2.00;;;;;;;;;;4994919;28;20050;-70
2020/12/30 02:36:57;;;;;;;2.63;2.10;;;;;;;;;;4994728;28;20054;-70
2020/12/30 02:39:24;;;;;;;3.35;2.40;;;;;;;;;;4994821;28;20421;-70
2020/12/30 02:41:50;;;;;;;3.85;2.30;;;;;;;;;;4995062;28;20497;-70
2020/12/30 02:44:16;;;;;;;3.85;2.17;;;;;;;;;;4995064;28;20046;-70
2020/12/30 02:46:42;;;;;;;3.20;2.13;;;;;;;;;;4994406;28;20089;-70
2020/12/30 02:49:08;;;;;;;5.43;2.15;;;;;;;;;;4994643;28;20108;-69
2020/12/30 02:51:40;;;;;;;2.20;1.63;;;;;;;;;;4994564;28;20050;-70
2020/12/30 02:54:06;;;;;;;2.67;2.00;;;;;;;;;;4994756;28;20055;-70
2020/12/30 02:56:32;;;;;;;3.38;1.50;;;;;;;;;;4994461;28;20104;-70
2020/12/30 02:58:58;;;;;;;3.83;1.70;;;;;;;;;;4993841;28;20082;-70
2020/12/30 03:01:24;;;;;;;2.35;1.55;;;;;;;;;;4994424;28;20097;-70
2020/12/30 03:03:50;;;;;;;2.15;1.38;;;;;;;;;;4994765;28;20050;-70
2020/12/30 03:06:16;;;;;;;3.28;1.50;;;;;;;;;;4994183;28;20077;-69
2020/12/30 03:08:42;;;;;;;2.20;1.75;;;;;;;;;;4990858;28;20498;-70
2020/12/30 03:11:09;;;;;;;1.58;1.25;;;;;;;;;;4974279;28;20552;-70
2020/12/30 03:13:35;;;;;;;2.45;1.50;;;;;;;;;;4974757;28;20061;-70
2020/12/30 03:16:01;;;;;;;1.52;1.42;;;;;;;;;;4974539;28;20100;-70
2020/12/30 03:18:27;;;;;;;1.50;1.20;;;;;;;;;;4974652;28;20104;-69
2020/12/30 03:20:54;;;;;;;1.92;1.30;;;;;;;;;;4974738;28;20159;-70
2020/12/30 03:23:20;;;;;;;1.50;1.27;;;;;;;;;;4974668;28;20046;-70
2020/12/30 03:25:46;;;;;;;2.03;1.20;;;;;;;;;;4974468;28;20086;-70
2020/12/30 03:28:12;;;;;;;2.05;1.40;;;;;;;;;;4974501;28;20058;-70
2020/12/30 03:30:38;;;;;;;1.75;1.48;;;;;;;;;;4974484;28;20134;-70
2020/12/30 03:33:05;;;;;;;2.40;1.25;;;;;;;;;;4974465;28;20051;-70
2020/12/30 03:35:31;;;;;;;1.40;1.00;;;;;;;;;;4974130;28;20145;-70
2020/12/30 03:37:57;;;;;;;2.22;1.15;;;;;;;;;;4983957;28;20046;-70
2020/12/30 03:40:23;;;;;;;1.00;1.00;;;;;;;;;;4993731;28;20047;-70
2020/12/30 03:42:49;;;;;;;1.08;0.98;;;;;;;;;;4993725;28;20472;-70
2020/12/30 03:45:15;;;;;;;1.85;0.98;;;;;;;;;;4993465;28;20564;-69
2020/12/30 03:47:41;;;;;;;1.23;1.13;;;;;;;;;;4992745;28;20121;-70
2020/12/30 03:50:08;;;;;;;2.17;1.00;;;;;;;;;;4993540;28;20182;-70
2020/12/30 03:52:35;;;;;;;1.75;1.30;;;;;;;;;;4993403;28;20137;-70
2020/12/30 03:55:01;;;;;;;3.17;1.08;;;;;;;;;;4993408;28;20132;-70
2020/12/30 03:57:27;;;;;;;1.45;1.10;;;;;;;;;;4993056;28;20050;-70
2020/12/30 03:59:53;;;;;;;2.65;1.40;;;;;;;;;;4993726;28;20096;-70
2020/12/30 04:02:19;;;;;;;1.48;0.98;;;;;;;;;;4993357;28;20092;-70
2020/12/30 04:04:45;;;;;;;1.23;1.08;;;;;;;;;;4993192;28;20489;-70
2020/12/30 04:07:12;;;;;;;2.78;1.48;;;;;;;;;;4993031;28;20394;-70
2020/12/30 04:09:38;;;;;;;1.17;0.90;;;;;;;;;;4993197;28;20081;-70
2020/12/30 04:12:04;;;;;;;1.85;0.90;;;;;;;;;;4993209;28;20092;-70
2020/12/30 04:14:30;;;;;;;2.25;1.27;;;;;;;;;;4992959;28;20548;-70
2020/12/30 04:16:56;;;;;;;2.08;1.30;;;;;;;;;;4992625;28;20489;-70
2020/12/30 04:19:22;;;;;;;1.42;1.33;;;;;;;;;;5016456;22;20101;-67
2020/12/30 04:21:48;;;;;;;2.58;1.50;;;;;;;;;;4993130;28;20062;-66
2020/12/30 04:24:14;;;;;;;4.65;1.30;;;;;;;;;;4992200;28;20050;-67
2020/12/30 04:26:40;;;;;;;1.85;1.20;;;;;;;;;;4992562;28;20524;-67
2020/12/30 04:29:06;;;;;;;4.22;1.27;;;;;;;;;;4992796;28;20504;-67
2020/12/30 04:31:35;;;;;;;2.50;1.30;;;;;;;;;;4991473;28;20528;-67
2020/12/30 04:34:01;;;;;;;3.10;1.67;;;;;;;;;;4991973;28;20058;-66
2020/12/30 04:36:27;;;;;;;2.65;1.50;;;;;;;;;;4991220;28;20058;-66
2020/12/30 04:38:53;;;;;;;3.63;1.92;;;;;;;;;;4992650;28;20054;-66
2020/12/30 04:41:19;;;;;;;1.80;1.65;;;;;;;;;;4991673;28;20042;-67
2020/12/30 04:43:45;;;;;;;2.30;1.40;;;;;;;;;;4991360;28;20148;-66
2020/12/30 04:46:12;;;;;;;2.28;1.70;;;;;;;;;;4990971;28;20058;-68
2020/12/30 04:48:40;;;;;;;1.98;1.45;;;;;;;;;;4959307;28;20051;-66
2020/12/30 04:51:06;;;;;;;3.35;1.60;;;;;;;;;;4991431;28;20097;-67
2020/12/30 04:53:34;;;;;;;3.67;1.55;;;;;;;;;;4991317;28;20082;-67
2020/12/30 04:56:01;;;;;;;2.40;1.50;;;;;;;;;;4991179;28;20112;-67
2020/12/30 04:58:28;;;;;;;5.60;1.52;;;;;;;;;;4959260;28;20113;-67
2020/12/30 05:00:56;;;;;;;4.15;1.65;;;;;;;;;;4991264;28;20062;-66
2020/12/30 05:03:29;;;;;;;1.30;1.10;;;;;;;;;;4975148;28;20054;-66
2020/12/30 05:05:56;;;;;;;3.88;1.38;;;;;;;;;;4975456;28;20128;-67
2020/12/30 05:08:23;;;;;;;2.03;1.45;;;;;;;;;;4975352;28;20181;-67
2020/12/30 05:10:52;;;;;;;3.85;1.35;;;;;;;;;;4990856;28;20560;-67
2020/12/30 05:13:20;;;;;;;3.38;1.58;;;;;;;;;;4992636;28;20405;-67
2020/12/30 05:15:46;;;;;;;2.58;1.40;;;;;;;;;;4992072;28;20490;-67
2020/12/30 05:18:12;;;;;;;3.08;1.27;;;;;;;;;;4991148;28;20551;-67
2020/12/30 05:20:38;;;;;;;4.00;1.35;;;;;;;;;;4974867;28;20532;-67
2020/12/30 05:23:05;;;;;;;2.42;1.20;;;;;;;;;;4992295;28;20532;-66
2020/12/30 05:25:41;;;;;;;2.08;1.35;;;;;;;;;;4974705;28;20047;-66
2020/12/30 05:28:12;;;;;;;3.92;0.95;;;;;;;;;;4975069;28;20492;-66
2020/12/30 05:30:43;;;;;;;2.55;1.40;;;;;;;;;;4990768;28;20077;-67
2020/12/30 05:33:09;;;;;;;5.50;1.23;;;;;;;;;;4975691;28;20054;-66
2020/12/30 05:35:36;;;;;;;2.67;1.73;;;;;;;;;;5013462;28;20497;-67
2020/12/30 05:38:02;;;;;;;4.78;1.40;;;;;;;;;;5014560;28;20100;-66
2020/12/30 05:40:30;;;;;;;1.58;1.17;;;;;;;;;;5015535;28;20066;-66
2020/12/30 05:43:28;;;;;;;4.32;1.35;;;;;;;;;;5015561;28;20049;-67
2020/12/30 05:45:55;;;;;;;3.58;1.50;;;;;;;;;;4962574;28;20277;-66
2020/12/30 05:48:22;;;;;;;1.80;1.08;;;;;;;;;;4998071;28;20046;-66
2020/12/30 05:50:56;;;;;;;2.70;1.40;;;;;;;;;;5014093;28;20394;-66
2020/12/30 05:53:23;;;;;;;3.42;1.38;;;;;;;;;;5012339;28;20058;-67
2020/12/30 05:56:06;;;;;;;5.53;1.38;;;;;;;;;;4994369;28;20051;-67
2020/12/30 05:58:42;;;;;;;2.67;1.40;;;;;;;;;;4980542;28;20097;-67
2020/12/30 06:01:25;;;;;;;2.58;1.40;;;;;;;;;;4978979;28;20093;-67
2020/12/30 06:03:51;;;;;;;2.40;1.25;;;;;;;;;;4994553;28;20051;-67
2020/12/30 06:06:20;;;;;;;5.20;1.55;;;;;;;;;;4995493;28;20113;-67
2020/12/30 06:08:50;;;;;;;3.25;1.20;;;;;;;;;;4993911;28;20105;-67
2020/12/30 06:11:23;;;;;;;2.50;1.30;;;;;;;;;;5000192;28;20042;-67
2020/12/30 06:13:52;;;;;;;;;;;;;;;;;;5016788;28;20042;-67
2020/12/30 06:16:27;;;;;;;1.98;1.17;;;;;;;;;;4995819;28;19921;-67
2020/12/30 06:18:53;;;;;;;1.88;0.98;;;;;;;;;;4978352;28;20050;-67
2020/12/30 06:21:19;;;;;;;2.03;1.08;;;;;;;;;;4977765;28;20050;-66
2020/12/30 06:23:45;;;;;;;1.73;0.93;;;;;;;;;;4977932;28;20050;-66
2020/12/30 06:26:13;;;;;;;3.28;0.98;;;;;;;;;;4990572;28;20456;-66
2020/12/30 06:28:39;;;;;;;1.40;1.27;;;;;;;;;;4997226;28;20053;-67
2020/12/30 06:31:05;;;;;;;4.00;1.73;;;;;;;;;;4997149;28;20045;-67
2020/12/30 06:33:31;;;;;;;3.10;1.23;;;;;;;;;;4997194;28;20072;-67
2020/12/30 06:35:57;;;;;;;2.28;1.30;;;;;;;;;;5003805;28;20544;-67
2020/12/30 06:38:27;;;;;;;2.83;1.23;;;;;;;;;;5014441;28;20575;-67
2020/12/30 06:40:54;;;;;;;4.45;1.17;;;;;;;;;;5013278;28;20050;-67
2020/12/30 06:43:35;;;;;;;1.10;1.00;;;;;;;;;;5011493;28;20050;-67
2020/12/30 06:46:02;;;;;;;5.05;1.55;;;;;;;;;;5011019;28;20104;-67
2020/12/30 06:48:28;;;;;;;2.40;1.30;;;;;;;;;;4990493;28;20393;-68
2020/12/30 06:50:54;;;;;;;3.40;1.95;;;;;;;;;;4991230;28;20042;-70
2020/12/30 06:53:28;;;;;;;5.03;1.50;;;;;;;;;;4990456;28;20050;-67
2020/12/30 06:55:54;;;;;;;2.85;1.85;;;;;;;;;;4991140;28;20108;-67
2020/12/30 06:58:43;;;;;;;4.80;2.20;;;;;;;;;;4991078;28;20451;-66
2020/12/30 07:01:21;;;;;;;3.95;2.05;;;;;;;;;;4991914;28;20074;-67
2020/12/30 07:03:48;;;;;;;3.95;1.92;;;;;;;;;;4992340;28;20078;-68
2020/12/30 07:06:29;;;;;;;2.25;1.60;;;;;;;;;;4996465;28;20053;-67
2020/12/30 07:09:04;;;;;;;3.35;1.77;;;;;;;;;;4994805;28;20074;-66
2020/12/30 07:11:50;;;;;;;3.78;1.88;;;;;;;;;;5010352;28;20046;-65
2020/12/30 07:14:26;;;;;;;3.05;1.60;;;;;;;;;;5010098;28;20058;-66
2020/12/30 07:17:00;;;;;;;3.35;1.90;;;;;;;;;;4999587;28;20571;-66
2020/12/30 07:19:27;;;;;;;2.38;1.55;;;;;;;;;;5006804;28;20101;-66
2020/12/30 07:21:53;;;;;;;3.65;1.77;;;;;;;;;;4991969;28;20112;-66
2020/12/30 07:24:40;;;;;;;2.40;1.27;;;;;;;;;;4991747;28;20057;-65
2020/12/30 07:27:09;;;;;;;2.53;2.03;;;;;;;;;;4996267;28;20480;-66
2020/12/30 07:29:35;;;;;;;2.25;1.58;;;;;;;;;;5009983;28;20137;-66
2020/12/30 07:32:02;;;;;;;3.63;2.00;;;;;;;;;;5006148;28;20054;-66
2020/12/30 07:34:30;;;;;;;3.67;1.98;;;;;;;;;;4997795;28;20054;-66
2020/12/30 07:36:57;;;;;;;4.75;2.65;;;;;;;;;;4990358;28;20050;-65
2020/12/30 07:39:24;;;;;;;2.83;1.92;;;;;;;;;;5005406;28;20379;-65
2020/12/30 07:41:50;;;;;;;4.00;2.00;;;;;;;;;;5011054;28;20046;-69
2020/12/30 07:44:20;;;;;;;4.95;1.42;;;;;;;;;;4952078;28;20519;-68
2020/12/30 07:46:46;;;;;;;2.42;2.17;;;;;;;;;;4989417;28;20085;-69
2020/12/30 07:49:15;;;;;;;2.33;1.40;;;;;;;;;;4981640;28;20972;-71
2020/12/30 07:51:52;;;;;;;5.47;2.17;;;;;;;;;;4981718;28;20093;-67
2020/12/30 07:54:20;;;;;;;1.75;1.52;;;;;;;;;;4998106;28;20055;-71
2020/12/30 07:56:46;;;;;;;2.38;1.60;;;;;;;;;;4981580;28;20055;-70
2020/12/30 07:59:23;;;;;;;3.83;2.15;;;;;;;;;;4983789;28;20493;-70
2020/12/30 08:01:57;;;;;;;2.35;1.75;;;;;;;;;;4965399;28;20046;-71
2020/12/30 08:04:24;;;;;;;3.63;1.70;;;;;;;;;;4980050;28;20051;-70
2020/12/30 08:06:50;;;;;;;4.85;2.20;;;;;;;;;;4962584;28;20058;-67
2020/12/30 08:09:16;;;;;;;5.22;2.78;;;;;;;;;;4985790;28;20983;-68
2020/12/30 08:11:52;;;;;;;2.72;1.98;;;;;;;;;;4980197;28;20042;-71
2020/12/30 08:14:19;;;;;;;2.70;1.80;;;;;;;;;;4988294;28;20105;-67
2020/12/30 08:17:06;;;;;;;3.47;1.77;;;;;;;;;;4978180;28;20418;-66
2020/12/30 08:19:34;;;;;;;2.72;1.65;;;;;;;;;;4997470;28;20070;-67
2020/12/30 08:22:05;;;;;;;2.78;2.03;;;;;;;;;;4977269;28;20101;-67
2020/12/30 08:24:34;;;;;;;4.43;1.98;;;;;;;;;;4987412;28;20140;-66
2020/12/30 08:27:00;;;;;;;3.45;1.65;;;;;;;;;;4960553;28;20054;-67
2020/12/30 08:29:31;;;;;;;2.85;1.52;;;;;;;;;;4962509;28;20497;-66
2020/12/30 08:31:58;;;;;;;6.35;2.75;;;;;;;;;;4996460;28;20038;-67
2020/12/30 08:34:28;;;;;;;4.30;2.63;;;;;;;;;;4962302;28;20480;-67
2020/12/30 08:37:02;;;;;;;4.35;2.25;;;;;;;;;;4983308;28;20564;-67
2020/12/30 08:39:28;;;;;;;4.32;2.10;;;;;;;;;;4985528;28;20058;-66
2020/12/30 08:41:54;;;;;;;3.90;1.98;;;;;;;;;;4976056;28;20069;-67
2020/12/30 08:44:21;;;;;;;3.50;1.70;;;;;;;;;;4984087;28;20076;-67
2020/12/30 08:46:49;;;;;;;2.72;1.85;;;;;;;;;;5010994;28;20130;-66
2020/12/30 08:49:21;;;;;;;1.95;1.75;;;;;;;;;;5008805;28;20057;-67
2020/12/30 08:51:47;;;;;;;2.00;1.58;;;;;;;;;;5008874;28;20065;-66
2020/12/30 08:54:14;;;;;;;2.45;1.83;;;;;;;;;;5010854;28;20528;-67
2020/12/30 08:56:42;;;;;;;2.38;1.83;;;;;;;;;;5010681;28;20057;-67
2020/12/30 08:59:08;;;;;;;1.60;1.42;;;;;;;;;;4997228;28;20517;-66
2020/12/30 09:01:35;;;;;;;2.72;1.65;;;;;;;;;;4975256;28;20105;-66
2020/12/30 09:04:11;;;;;;;3.38;1.80;;;;;;;;;;4991346;28;20120;-67
2020/12/30 09:06:37;;;;;;;4.07;1.77;;;;;;;;;;4975074;28;20642;-66
2020/12/30 09:09:08;;;;;;;3.05;1.48;;;;;;;;;;4986879;28;20111;-67
2020/12/30 09:11:35;;;;;;;3.38;1.90;;;;;;;;;;5011872;28;20041;-66
2020/12/30 09:14:12;;;;;;;3.78;1.92;;;;;;;;;;5010901;28;20456;-67
2020/12/30 09:16:57;;;;;;;2.83;1.60;;;;;;;;;;5011856;28;20057;-67
2020/12/30 09:19:24;;;;;;;3.35;1.90;;;;;;;;;;4992034;28;20054;-66
2020/12/30 09:21:50;;;;;;;4.30;1.55;;;;;;;;;;4971592;28;20047;-67
2020/12/30 09:24:16;;;;;;;5.03;2.50;;;;;;;;;;4971613;28;20545;-67
2020/12/30 09:26:43;;;;;;;3.85;1.98;;;;;;;;;;4987488;28;20054;-67
2020/12/30 09:29:19;;;;;;;1.63;1.50;;;;;;;;;;4997234;28;20104;-67
2020/12/30 09:31:55;;;;;;;1.92;1.33;;;;;;;;;;5010606;28;20050;-67
2020/12/30 09:34:25;;;;;;;4.10;2.35;;;;;;;;;;5010684;28;20513;-67
2020/12/30 09:36:53;;;;;;;3.88;1.90;;;;;;;;;;5011755;28;20053;-68
2020/12/30 09:39:19;;;;;;;4.35;1.90;;;;;;;;;;4992551;28;20042;-67
2020/12/30 09:41:46;;;;;;;2.17;1.50;;;;;;;;;;4955578;28;20113;-68
2020/12/30 09:44:12;;;;;;;2.08;1.23;;;;;;;;;;4987743;28;20102;-67
2020/12/30 09:46:51;;;;;;;5.55;1.55;;;;;;;;;;4987348;28;20059;-67
2020/12/30 09:49:18;;;;;;;2.10;1.60;;;;;;;;;;5002308;28;20132;-68
2020/12/30 09:51:44;;;;;;;3.05;1.30;;;;;;;;;;4974804;28;20089;-68
2020/12/30 09:54:10;;;;;;;2.08;1.30;;;;;;;;;;4974759;28;20113;-67
2020/12/30 09:56:40;;;;;;;2.40;1.48;;;;;;;;;;4988309;28;20105;-73
2020/12/30 09:59:06;;;;;;;3.58;1.80;;;;;;;;;;4979638;28;20046;-75
2020/12/30 10:01:33;;;;;;;2.88;1.50;;;;;;;;;;4982731;28;20113;-70
2020/12/30 10:03:59;;;;;;;2.88;1.60;;;;;;;;;;4978592;28;20464;-70
2020/12/30 10:06:26;;;;;;;3.08;1.50;;;;;;;;;;4994246;28;20089;-71
2020/12/30 10:08:52;;;;;;;2.85;1.20;;;;;;;;;;4982574;28;20143;-73
2020/12/30 10:11:19;;;;;;;3.38;1.73;;;;;;;;;;4981655;28;20061;-72
2020/12/30 10:13:45;;;;;;;3.42;1.95;;;;;;;;;;4960968;28;20414;-73
2020/12/30 10:16:11;;;;;;;3.95;2.17;;;;;;;;;;4965825;28;20051;-71
2020/12/30 10:18:38;;;;;;;2.95;1.65;;;;;;;;;;4985275;28;20573;-71
2020/12/30 10:21:04;;;;;;;4.60;2.40;;;;;;;;;;5028433;23;20049;-71
2020/12/30 10:23:30;;;;;;;4.00;2.30;;;;;;;;;;5023763;28;20132;-71
2020/12/30 10:25:59;;;;;;;3.42;1.80;;;;;;;;;;5023458;28;20300;-71
2020/12/30 10:28:25;;;;;;;3.75;2.35;;;;;;;;;;5022343;28;20555;-70
2020/12/30 10:30:52;;;;;;;3.28;2.20;;;;;;;;;;5023321;28;20048;-70
2020/12/30 10:33:18;;;;;;;4.22;2.30;;;;;;;;;;5018012;28;20496;-70
2020/12/30 10:35:44;;;;;;;3.55;2.10;;;;;;;;;;5020162;28;20468;-71
2020/12/30 10:38:10;;;;;;;3.10;1.60;;;;;;;;;;5023014;28;20099;-72
2020/12/30 10:40:37;;;;;;;3.55;1.55;;;;;;;;;;5021137;28;20116;-70
2020/12/30 10:43:03;;;;;;;2.72;1.60;;;;;;;;;;5023120;28;20432;-70
2020/12/30 10:45:30;;;;;;;2.60;1.75;;;;;;;;;;5021598;28;20393;-70
2020/12/30 10:47:57;;;;;;;3.90;1.52;;;;;;;;;;5024121;28;20496;-72
2020/12/30 10:50:23;;;;;;;4.43;1.85;;;;;;;;;;5020430;28;20092;-72
2020/12/30 10:52:49;;;;;;;2.33;1.48;;;;;;;;;;5022318;28;20045;-72
2020/12/30 10:55:17;;;;;;;1.73;1.50;;;;;;;;;;5019143;28;20053;-70
2020/12/30 10:57:43;;;;;;;1.80;1.50;;;;;;;;;;5023852;28;20049;-70
2020/12/30 11:00:11;;;;;;;3.45;2.10;;;;;;;;;;5021452;28;20054;-72
2020/12/30 11:02:38;;;;;;;2.13;1.25;;;;;;;;;;5021328;28;20053;-69
2020/12/30 11:05:04;;;;;;;1.45;1.33;;;;;;;;;;5021199;28;20107;-72
2020/12/30 11:07:31;;;;;;;4.88;1.50;;;;;;;;;;5026228;28;20049;-70
2020/12/30 11:09:57;;;;;;;3.65;1.45;;;;;;;;;;5023364;28;20096;-72
2020/12/30 11:12:23;;;;;;;2.70;1.45;;;;;;;;;;5020975;28;20551;-71
2020/12/30 11:14:50;;;;;;;2.35;1.20;;;;;;;;;;5024121;28;20111;-67
2020/12/30 11:17:16;;;;;;;3.05;1.90;;;;;;;;;;5022575;28;20089;-71
2020/12/30 11:19:43;;;;;;;4.88;2.15;;;;;;;;;;5019466;28;20137;-70
2020/12/30 11:22:09;;;;;;;2.78;1.80;;;;;;;;;;5019500;28;20421;-70
2020/12/30 11:24:38;;;;;;;2.78;1.63;;;;;;;;;;5022683;28;20059;-69
2020/12/30 11:27:04;;;;;;;4.85;1.33;;;;;;;;;;5018773;28;20053;-69
2020/12/30 11:29:31;;;;;;;4.90;1.40;;;;;;;;;;5022721;28;20057;-70
2020/12/30 11:31:58;;;;;;;4.13;1.83;;;;;;;;;;5020168;28;20313;-69
2020/12/30 11:34:24;;;;;;;2.13;1.52;;;;;;;;;;5020381;28;20556;-69
2020/12/30 11:36:51;;;;;;;3.33;2.67;;;;;;;;;;5026073;28;20081;-68
2020/12/30 11:39:17;;;;;;;3.38;1.83;;;;;;;;;;5009487;28;20513;-70
2020/12/30 11:41:48;;;;;;;4.05;1.85;;;;;;;;;;5008616;28;20547;-69
2020/12/30 11:44:14;;;;;;;3.75;2.13;;;;;;;;;;5010520;28;20054;-69
2020/12/30 11:46:40;;;;;;;2.75;1.70;;;;;;;;;;5012842;28;20053;-68
2020/12/30 11:49:06;;;;;;;3.92;1.80;;;;;;;;;;5030178;28;20077;-70
2020/12/30 11:51:39;;;;;;;4.00;2.13;;;;;;;;;;5030186;28;20045;-70
2020/12/30 11:54:05;;;;;;;5.45;2.10;;;;;;;;;;5030714;28;20480;-69
2020/12/30 11:56:31;;;;;;;3.80;1.98;;;;;;;;;;5015424;28;20437;-69
2020/12/30 11:58:57;;;;;;;4.57;1.60;;;;;;;;;;5010834;28;20085;-69
2020/12/30 12:01:23;;;;;;;2.83;1.50;;;;;;;;;;5010107;28;20124;-69
2020/12/30 12:03:50;;;;;;;4.28;1.65;;;;;;;;;;5009189;28;20497;-69
2020/12/30 12:06:16;;;;;;;3.97;1.63;;;;;;;;;;5022784;28;20142;-69
2020/12/30 12:08:42;;;;;;;3.00;1.42;;;;;;;;;;5045354;28;20158;-69
2020/12/30 12:11:09;;;;;;;2.72;1.40;;;;;;;;;;5030224;28;20498;-70
2020/12/30 12:13:35;;;;;;;2.85;1.23;;;;;;;;;;5029965;28;20195;-70
2020/12/30 12:16:01;;;;;;;4.47;1.50;;;;;;;;;;5020018;28;20433;-70
2020/12/30 12:18:28;;;;;;;2.50;1.25;;;;;;;;;;5010496;28;20057;-71
2020/12/30 12:20:54;;;;;;;1.48;1.00;;;;;;;;;;5011106;28;20053;-71
2020/12/30 12:23:24;;;;;;;4.45;1.63;;;;;;;;;;5009866;28;20107;-71
2020/12/30 12:25:50;;;;;;;1.75;1.17;;;;;;;;;;5023986;28;20107;-70
2020/12/30 12:28:42;;;;;;;5.00;2.00;;;;;;;;;;5026661;28;20061;-70
2020/12/30 12:31:14;;;;;;;3.55;1.33;;;;;;;;;;5019845;28;20049;-70
2020/12/30 12:33:40;;;;;;;1.30;1.02;;;;;;;;;;5022417;28;20050;-70
2020/12/30 12:36:10;;;;;;;1.95;1.00;;;;;;;;;;5021253;28;20153;-71
2020/12/30 12:38:36;;;;;;;2.40;0.80;;;;;;;;;;5016366;28;20045;-71
2020/12/30 12:41:02;;;;;;;1.40;0.68;;;;;;;;;;5019076;28;20134;-71
2020/12/30 12:43:28;;;;;;;4.72;1.48;;;;;;;;;;5025461;28;20057;-71
2020/12/30 12:45:54;;;;;;;4.85;1.20;;;;;;;;;;5021513;28;20046;-71
2020/12/30 12:48:20;;;;;;;3.45;1.75;;;;;;;;;;5017144;28;20107;-71
2020/12/30 12:50:46;;;;;;;4.95;1.70;;;;;;;;;;5019776;28;20508;-71
2020/12/30 12:53:12;;;;;;;2.85;1.20;;;;;;;;;;5022546;28;20076;-71
2020/12/30 12:55:38;;;;;;;4.82;1.50;;;;;;;;;;5019953;28;20053;-71
2020/12/30 12:58:04;;;;;;;1.98;0.80;;;;;;;;;;5017331;28;20049;-71
2020/12/30 13:00:31;;;;;;;2.25;1.30;;;;;;;;;;5018834;28;20042;-70
2020/12/30 13:02:57;;;;;;;5.28;1.20;;;;;;;;;;5014140;28;20049;-71
2020/12/30 13:05:23;;;;;;;2.83;1.08;;;;;;;;;;5009590;28;20069;-69
2020/12/30 13:07:49;;;;;;;1.38;0.93;;;;;;;;;;5010821;28;20077;-73
2020/12/30 13:10:15;;;;;;;2.53;1.35;;;;;;;;;;5010200;28;20124;-70
2020/12/30 13:12:41;;;;;;;5.35;2.30;;;;;;;;;;5007707;28;20053;-70
2020/12/30 13:15:07;;;;;;;2.63;1.90;;;;;;;;;;5023817;28;20056;-69
2020/12/30 13:17:34;;;;;;;3.22;2.10;;;;;;;;;;5023164;28;20085;-70
2020/12/30 13:20:00;;;;;;;4.53;1.98;;;;;;;;;;5025360;28;20103;-72
2020/12/30 13:22:27;;;;;;;10.23;3.92;;;;;;;;;;5023479;28;20046;-70
2020/12/30 13:24:53;;;;;;;11.05;5.95;;;;;;;;;;5019182;28;20050;-71
2020/12/30 13:27:19;;;;;;;5.78;3.65;;;;;;;;;;5022167;28;20104;-69
2020/12/30 13:29:48;;;;;;;6.00;2.80;;;;;;;;;;5021323;28;20046;-69
2020/12/30 13:32:14;;;;;;;4.30;2.40;;;;;;;;;;5019270;28;20046;-68
2020/12/30 13:34:40;;;;;;;3.60;2.13;;;;;;;;;;5020002;28;20049;-69
2020/12/30 13:37:06;;;;;;;3.17;1.50;;;;;;;;;;5019936;28;20108;-70
2020/12/30 13:39:32;;;;;;;3.58;1.73;;;;;;;;;;5020340;28;20085;-69
2020/12/30 13:41:58;;;;;;;3.97;1.75;;;;;;;;;;5020296;28;20046;-70
2020/12/30 13:44:24;;;;;;;3.47;1.55;;;;;;;;;;5015896;28;20076;-69
2020/12/30 13:46:51;;;;;;;3.55;1.50;;;;;;;;;;5017203;28;20483;-69
2020/12/30 13:49:17;;;;;;;3.08;1.63;;;;;;;;;;5020131;28;20088;-69
2020/12/30 13:51:43;;;;;;;5.15;1.42;;;;;;;;;;5018192;28;20152;-71
2020/12/30 13:54:09;;;;;;;4.63;2.08;;;;;;;;;;5018105;28;20088;-71
2020/12/30 13:56:36;;;;;;;3.05;1.83;;;;;;;;;;5022622;28;20049;-70
2020/12/30 13:59:02;;;;;;;6.88;2.97;;;;;;;;;;5024803;28;20595;-70
2020/12/30 14:01:28;;;;;;;14.48;3.53;;;;;;;;;;5024433;28;20549;-70
2020/12/30 14:03:55;;;;;;;16.05;4.28;;;;;;;;;;5030979;28;20049;-71
2020/12/30 14:06:24;;;;;;;5.05;2.28;;;;;;;;;;5030513;28;20499;-68
2020/12/30 14:08:51;;;;;;;5.63;2.72;;;;;;;;;;5027010;28;20060;-70
2020/12/30 14:11:18;;;;;;;9.68;3.38;;;;;;;;;;5027236;28;20045;-71
2020/12/30 14:13:45;;;;;;;19.50;6.63;;;;;;;;;;5021104;28;20085;-69
2020/12/30 14:16:13;;;;;;;10.00;4.10;;;;;;;;;;5024271;28;20053;-71
2020/12/30 14:18:40;;;;;;;5.80;3.17;;;;;;;;;;5020412;28;20061;-72
2020/12/30 14:21:07;;;;;;;3.33;2.65;;;;;;;;;;5019427;28;20091;-72
2020/12/30 14:23:33;;;;;;;5.05;3.03;;;;;;;;;;5019495;28;20050;-74
2020/12/30 14:26:00;;;;;;;3.90;2.38;;;;;;;;;;5024530;28;20053;-73
2020/12/30 14:28:27;;;;;;;3.10;2.13;;;;;;;;;;5018804;28;20057;-71
2020/12/30 14:30:54;;;;;;;3.40;2.03;;;;;;;;;;5023073;28;20099;-72
2020/12/30 14:33:20;;;;;;;4.53;2.40;;;;;;;;;;5030590;28;20479;-69
2020/12/30 14:35:47;;;;;;;2.47;1.80;;;;;;;;;;5021170;28;20131;-69
2020/12/30 14:38:13;;;;;;;7.85;3.05;;;;;;;;;;5022216;28;20057;-72
2020/12/30 14:40:39;;;;;;;3.28;2.40;;;;;;;;;;5020564;28;20045;-70
2020/12/30 14:43:05;;;;;;;5.60;3.13;;;;;;;;;;5022488;28;20092;-71
2020/12/30 14:45:31;;;;;;;4.43;3.15;;;;;;;;;;5023463;28;20100;-70